Time;durP1;ratioP1;P1;durP2;ratioP2;P2;SDS_P1;SDS_P2;PMS_P1;PMS_P2;Temp;Humidity;BMP_temperature;BMP_pressure;BME280_temperature;BME280_humidity;BME280_pressure;Samples;Min_cycle;Max_cycle;Signal;HPM_P1;HPM_P2
2021/12/08 00:01:59;;;;;;;19.92;11.73;;;;;;;0.36;68.46;99691.09;5035018;28;20369;-55
2021/12/08 00:04:25;;;;;;;20.13;11.70;;;;;;;0.34;68.52;99696.44;5034659;28;20034;-54
2021/12/08 00:06:51;;;;;;;19.13;10.98;;;;;;;0.34;68.54;99716.63;5033033;28;20112;-55
2021/12/08 00:09:45;;;;;;;16.35;10.63;;;;;;;0.24;68.17;99708.25;5034723;28;20033;-58
2021/12/08 00:14:57;;;;;;;19.00;11.83;;;;;;;0.33;68.15;99710.53;5034406;28;20473;-53
2021/12/08 00:17:22;;;;;;;17.67;10.70;;;;;;;0.29;67.80;99716.84;5033909;28;20037;-50
2021/12/08 00:19:48;;;;;;;19.20;12.00;;;;;;;0.24;67.94;99710.88;5034664;28;20485;-56
2021/12/08 00:22:14;;;;;;;17.67;11.35;;;;;;;0.07;67.56;99694.00;5035072;28;20424;-54
2021/12/08 00:24:40;;;;;;;16.70;10.52;;;;;;;0.18;67.94;99695.34;5034049;28;20088;-53
2021/12/08 00:27:06;;;;;;;20.38;12.00;;;;;;;0.17;67.32;99723.47;5034261;28;20076;-53
2021/12/08 00:29:31;;;;;;;20.63;11.50;;;;;;;0.09;67.14;99723.75;5034037;28;20041;-53
2021/12/08 00:31:58;;;;;;;19.73;11.02;;;;;;;0.02;67.61;99719.66;5033880;28;20079;-55
2021/12/08 00:34:24;;;;;;;18.05;11.32;;;;;;;0.02;67.61;99703.84;5032767;28;20116;-53
2021/12/08 00:36:55;;;;;;;17.85;11.15;;;;;;;-0.01;67.47;99703.94;5033979;28;20131;-53
2021/12/08 00:39:20;;;;;;;21.52;11.82;;;;;;;-0.06;67.27;99711.19;5033931;28;20068;-54
2021/12/08 00:41:46;;;;;;;19.08;11.40;;;;;;;-0.09;67.36;99717.44;5033988;28;20108;-55
2021/12/08 00:44:11;;;;;;;21.50;11.27;;;;;;;-0.12;67.16;99714.94;5033731;28;20065;-51
2021/12/08 00:46:37;;;;;;;19.65;11.65;;;;;;;-0.11;67.50;99715.75;5033975;28;20529;-55
2021/12/08 00:49:08;;;;;;;19.23;11.60;;;;;;;-0.12;67.69;99714.06;5033866;28;20029;-53
2021/12/08 00:51:34;;;;;;;24.65;12.05;;;;;;;-0.13;68.24;99731.59;5033616;28;20036;-55
2021/12/08 00:53:59;;;;;;;20.98;11.93;;;;;;;-0.08;67.37;99747.22;5032824;28;20104;-55
2021/12/08 00:56:25;;;;;;;19.05;11.30;;;;;;;-0.34;67.52;99691.19;5032355;28;20338;-53
2021/12/08 00:58:51;;;;;;;20.50;12.10;;;;;;;-0.04;67.49;99747.06;5033348;28;20037;-54
2021/12/08 01:01:17;;;;;;;22.48;12.27;;;;;;;-0.02;67.84;99745.22;5032939;28;20025;-57
2021/12/08 01:03:45;;;;;;;20.17;11.80;;;;;;;0.01;66.98;99744.25;5033601;28;20030;-57
2021/12/08 01:06:11;;;;;;;18.27;11.02;;;;;;;-0.01;67.09;99744.31;5033175;28;20030;-53
2021/12/08 01:08:37;;;;;;;24.55;12.85;;;;;;;-0.08;66.04;99742.84;5033239;28;20028;-54
2021/12/08 01:11:23;;;;;;;21.08;11.98;;;;;;;-0.01;67.69;99754.84;5031908;28;20385;-54
2021/12/08 01:13:49;;;;;;;;;;;;;;;0.19;67.71;99753.22;5033694;28;20037;-53
2021/12/08 01:16:17;;;;;;;22.02;13.05;;;;;;;-0.03;66.60;99745.28;5033239;28;20330;-54
2021/12/08 01:18:42;;;;;;;24.23;12.35;;;;;;;-0.04;66.36;99748.81;5033525;28;20024;-53
2021/12/08 01:21:10;;;;;;;20.38;11.63;;;;;;;-0.12;66.74;99757.03;5033327;28;20037;-55
2021/12/08 01:23:37;;;;;;;19.75;11.75;;;;;;;-0.11;66.88;99771.03;5032842;28;20517;-52
2021/12/08 01:26:05;;;;;;;22.05;12.30;;;;;;;-0.11;66.09;99771.03;5032980;28;20056;-54
2021/12/08 01:28:32;;;;;;;22.67;12.80;;;;;;;-0.30;66.30;99740.13;5033437;28;20040;-55
2021/12/08 01:31:00;;;;;;;24.55;14.02;;;;;;;-0.23;65.99;99760.06;5032932;28;20044;-57
2021/12/08 01:33:27;;;;;;;24.00;13.00;;;;;;;-0.31;66.13;99767.34;5032650;28;20026;-54
2021/12/08 01:35:53;;;;;;;22.42;12.35;;;;;;;-0.58;66.26;99733.25;5033148;28;20088;-58
2021/12/08 01:38:20;;;;;;;20.38;11.95;;;;;;;-0.48;65.69;99754.81;5032203;28;20029;-55
2021/12/08 01:40:45;;;;;;;23.95;12.73;;;;;;;-0.43;65.87;99768.66;5033017;28;20116;-55
2021/12/08 01:43:23;;;;;;;24.60;13.48;;;;;;;-0.49;65.44;99769.72;5032294;28;20120;-52
2021/12/08 01:45:57;;;;;;;22.48;12.77;;;;;;;-0.56;65.75;99765.63;5039463;28;20064;-53
2021/12/08 01:48:23;;;;;;;22.60;12.52;;;;;;;-0.67;65.98;99762.53;5052828;28;20104;-60
2021/12/08 01:50:52;;;;;;;22.52;12.30;;;;;;;-0.80;66.34;99765.56;5052450;28;20476;-60
2021/12/08 01:53:19;;;;;;;23.42;13.35;;;;;;;-0.86;65.87;99771.03;5050690;28;20031;-55
2021/12/08 01:55:45;;;;;;;24.27;13.38;;;;;;;-0.96;66.17;99772.28;5051234;28;20052;-53
2021/12/08 01:58:12;;;;;;;25.27;13.55;;;;;;;-0.97;66.19;99781.03;5052356;28;20469;-55
2021/12/08 02:00:41;;;;;;;22.83;13.55;;;;;;;-0.96;66.65;99778.38;5050919;28;20025;-55
2021/12/08 02:03:08;;;;;;;25.25;13.55;;;;;;;-1.04;65.94;99768.13;5051419;28;20365;-52
2021/12/08 02:05:34;;;;;;;25.38;12.93;;;;;;;-1.05;66.21;99784.78;5052065;28;20032;-54
2021/12/08 02:08:00;;;;;;;27.17;13.13;;;;;;;-1.07;66.35;99797.13;5052323;28;20077;-54
2021/12/08 02:10:26;;;;;;;27.45;13.85;;;;;;;-1.14;66.73;99790.38;5049824;28;20060;-53
2021/12/08 02:12:53;;;;;;;25.02;13.73;;;;;;;-1.09;66.29;99803.34;5050953;28;20465;-54
2021/12/08 02:15:20;;;;;;;25.45;12.98;;;;;;;-1.12;66.35;99796.44;5050796;28;20078;-53
2021/12/08 02:17:49;;;;;;;26.95;13.85;;;;;;;-1.15;66.35;99807.03;5052038;28;20021;-54
2021/12/08 02:20:15;;;;;;;27.83;14.60;;;;;;;-1.17;67.13;99808.88;5051592;28;20032;-54
2021/12/08 02:22:42;;;;;;;26.33;15.27;;;;;;;-1.20;66.28;99807.19;5051572;28;20032;-51
2021/12/08 02:25:13;;;;;;;29.60;14.55;;;;;;;-1.23;66.44;99809.91;5051328;28;20532;-50
2021/12/08 02:27:39;;;;;;;29.08;14.75;;;;;;;-1.29;67.04;99807.50;5051051;28;20121;-55
2021/12/08 02:30:18;;;;;;;26.98;14.55;;;;;;;-1.26;66.96;99810.00;5051666;28;20107;-55
2021/12/08 02:46:48;;;;;;;29.30;14.13;;;;;;;-1.44;66.88;99816.72;5051148;28;20083;-53
2021/12/08 02:49:15;;;;;;;28.13;14.30;;;;;;;-1.57;66.58;99818.84;5051735;28;20025;-53
2021/12/08 02:51:42;;;;;;;26.42;14.27;;;;;;;-1.64;67.57;99826.06;5051259;28;20029;-56
2021/12/08 02:54:07;;;;;;;27.27;14.20;;;;;;;-1.71;67.38;99813.16;5051080;28;20029;-55
2021/12/08 02:56:33;;;;;;;29.25;15.07;;;;;;;-1.65;67.10;99824.34;5051425;28;20029;-52
2021/12/08 02:58:59;;;;;;;28.52;14.50;;;;;;;-1.63;67.40;99833.03;5051427;28;20485;-54
2021/12/08 03:01:27;;;;;;;27.35;14.77;;;;;;;-1.63;67.15;99832.16;5050977;28;20319;-57
2021/12/08 03:03:52;;;;;;;26.95;13.77;;;;;;;-1.90;68.05;99783.09;5051790;28;20025;-53
2021/12/08 03:06:18;;;;;;;29.85;15.48;;;;;;;-1.63;68.06;99821.66;5051728;28;20078;-55
2021/12/08 03:08:44;;;;;;;28.83;15.05;;;;;;;-1.77;67.85;99787.94;5050866;28;20392;-56
2021/12/08 03:11:10;;;;;;;30.10;15.07;;;;;;;-1.53;67.60;99828.38;5051189;28;20536;-56
2021/12/08 03:13:42;;;;;;;30.95;16.10;;;;;;;-1.43;66.94;99849.94;5050258;28;20037;-54
2021/12/08 03:16:11;;;;;;;31.55;15.73;;;;;;;-1.43;67.59;99855.19;5051149;28;20025;-56
2021/12/08 03:18:40;;;;;;;29.67;15.10;;;;;;;-1.45;67.20;99855.25;5050895;28;20354;-53
2021/12/08 03:21:08;;;;;;;31.35;15.85;;;;;;;-1.51;66.78;99844.06;5050958;28;20504;-55
2021/12/08 03:24:04;;;;;;;31.95;15.98;;;;;;;-1.61;67.50;99846.09;5050064;28;20531;-56
2021/12/08 03:26:32;;;;;;;29.92;14.40;;;;;;;-1.61;67.55;99840.84;5050874;28;20202;-52
2021/12/08 03:29:17;;;;;;;29.40;15.05;;;;;;;-1.68;66.95;99834.94;5050667;28;20493;-51
2021/12/08 03:31:45;;;;;;;27.00;14.32;;;;;;;-1.68;66.62;99845.44;5051131;28;20492;-57
2021/12/08 03:34:11;;;;;;;27.40;14.50;;;;;;;-1.94;66.67;99828.66;5050588;28;20029;-54
2021/12/08 03:36:37;;;;;;;25.33;13.98;;;;;;;-1.84;67.07;99854.66;5043609;28;20220;-53
2021/12/08 03:39:05;;;;;;;24.67;13.30;;;;;;;-1.81;67.20;99875.56;5050358;28;20092;-56
2021/12/08 03:41:33;;;;;;;26.08;13.90;;;;;;;-1.89;66.94;99866.16;5042792;28;20039;-56
2021/12/08 03:44:00;;;;;;;28.15;14.30;;;;;;;-1.90;67.30;99866.19;5069390;28;20036;-55
2021/12/08 03:46:28;;;;;;;28.90;13.98;;;;;;;-1.87;66.70;99873.97;5069737;28;20063;-52
2021/12/08 03:48:54;;;;;;;26.85;14.20;;;;;;;-2.05;67.31;99855.25;5070514;28;20033;-55
2021/12/08 03:51:20;;;;;;;28.52;14.80;;;;;;;-2.26;66.75;99848.81;5069710;28;20039;-50
2021/12/08 03:53:46;;;;;;;28.00;13.55;;;;;;;-2.29;66.45;99834.91;5071015;28;20449;-54
2021/12/08 03:56:12;;;;;;;26.40;13.65;;;;;;;-2.14;66.56;99879.09;5070584;28;20034;-54
2021/12/08 03:58:38;;;;;;;26.98;14.20;;;;;;;-2.21;66.41;99888.88;5070293;28;20357;-53
2021/12/08 04:01:05;;;;;;;30.27;15.27;;;;;;;-2.24;67.02;99882.88;5070594;28;20040;-52
2021/12/08 04:03:33;;;;;;;29.15;14.88;;;;;;;-2.27;67.12;99891.69;5069584;28;20032;-56
2021/12/08 04:06:03;;;;;;;26.88;14.13;;;;;;;-2.25;67.46;99896.91;5068286;28;20032;-56
2021/12/08 04:08:39;;;;;;;26.63;14.60;;;;;;;-2.15;67.12;99887.03;5069540;28;20040;-56
2021/12/08 04:11:06;;;;;;;32.17;15.80;;;;;;;-2.11;66.90;99907.00;5070669;28;20476;-55
2021/12/08 04:13:37;;;;;;;32.75;16.30;;;;;;;-2.14;67.14;99912.34;5070623;28;20047;-53
2021/12/08 04:16:04;;;;;;;34.65;16.60;;;;;;;-2.17;67.36;99900.16;5070193;28;20116;-55
2021/12/08 04:18:29;;;;;;;33.15;16.42;;;;;;;-2.13;67.34;99903.56;5070321;28;20029;-56
2021/12/08 04:20:57;;;;;;;32.78;16.70;;;;;;;-2.10;66.92;99906.97;5070318;28;20040;-51
2021/12/08 04:23:26;;;;;;;32.78;15.88;;;;;;;-2.06;67.59;99918.25;5070069;28;20021;-55
2021/12/08 04:25:54;;;;;;;36.03;17.55;;;;;;;-2.07;66.73;99906.03;5070018;28;20059;-52
2021/12/08 04:28:27;;;;;;;29.50;15.68;;;;;;;-2.35;66.54;99865.66;5070115;28;20044;-52
2021/12/08 04:31:01;;;;;;;35.97;17.85;;;;;;;-2.09;66.82;99915.69;5070329;28;20064;-55
2021/12/08 04:33:27;;;;;;;34.33;16.90;;;;;;;-2.11;66.70;99917.50;5070400;28;20040;-55
2021/12/08 04:35:54;;;;;;;37.60;17.25;;;;;;;-2.11;66.35;99928.00;5069866;28;20343;-52
2021/12/08 04:38:29;;;;;;;40.25;18.38;;;;;;;-2.10;66.93;99920.06;5068818;28;20529;-56
2021/12/08 04:41:06;;;;;;;37.63;18.00;;;;;;;-2.09;66.82;99924.41;5070145;28;20033;-56
2021/12/08 04:43:53;;;;;;;36.72;17.70;;;;;;;-2.06;66.90;99923.47;5069765;28;20060;-55
2021/12/08 05:00:46;;;;;;;33.25;14.52;;;;;;;-2.32;64.07;99933.75;5073530;28;20032;-54
2021/12/08 05:08:50;;;;;;;33.42;14.27;;;;;;;-2.61;64.13;99969.44;5073630;28;20456;-56
2021/12/08 05:11:18;;;;;;;31.23;13.88;;;;;;;-2.67;63.39;99973.94;5072922;28;20042;-56
2021/12/08 05:13:46;;;;;;;33.85;14.15;;;;;;;-2.77;63.59;99976.78;5073213;28;20036;-58
2021/12/08 05:16:13;;;;;;;33.42;14.30;;;;;;;-2.93;63.85;99962.31;5071580;28;20032;-55
2021/12/08 05:18:43;;;;;;;31.30;13.18;;;;;;;-2.91;64.34;99991.97;5073443;28;20078;-56
2021/12/08 05:21:11;;;;;;;37.65;14.20;;;;;;;-2.97;64.44;100006.06;5072791;28;20431;-52
2021/12/08 05:23:40;;;;;;;35.85;14.30;;;;;;;-2.96;63.96;99978.09;5072420;28;20218;-54
2021/12/08 05:26:20;;;;;;;32.45;14.52;;;;;;;-2.97;64.30;99981.63;5072620;28;20088;-56
2021/12/08 05:28:48;;;;;;;35.83;14.05;;;;;;;-3.06;64.31;99985.31;5072486;28;20071;-52
2021/12/08 05:31:27;;;;;;;32.25;13.43;;;;;;;-3.00;64.66;99992.19;5072997;28;20051;-54
2021/12/08 05:33:54;;;;;;;32.85;13.98;;;;;;;-3.06;64.23;100001.91;5072509;28;20029;-52
2021/12/08 05:36:20;;;;;;;35.05;14.20;;;;;;;-3.10;63.87;100000.25;5072900;28;20030;-50
2021/12/08 05:38:46;;;;;;;34.33;14.10;;;;;;;-3.13;64.07;100002.94;5073018;28;20116;-55
2021/12/08 05:41:21;;;;;;;41.40;14.93;;;;;;;-3.13;64.72;100008.16;5072526;28;20024;-56
2021/12/08 05:43:48;;;;;;;40.60;15.70;;;;;;;-3.12;64.17;100014.25;5072439;28;20456;-57
2021/12/08 05:46:15;;;;;;;34.65;14.48;;;;;;;-3.17;64.60;100011.72;5072739;28;20032;-55
2021/12/08 05:48:42;;;;;;;35.25;14.50;;;;;;;-3.24;64.73;100020.63;5072519;28;20029;-56
2021/12/08 05:51:31;;;;;;;30.27;13.30;;;;;;;-3.29;64.76;100018.06;5072609;28;20067;-56
2021/12/08 05:54:12;;;;;;;32.88;14.48;;;;;;;-3.32;64.43;100034.72;5071762;28;20045;-55
2021/12/08 05:56:40;;;;;;;31.85;14.73;;;;;;;-3.37;64.14;100036.59;5072228;28;20029;-56
2021/12/08 05:59:08;;;;;;;35.85;15.02;;;;;;;-3.51;64.82;100023.75;5072763;28;20031;-56
2021/12/08 06:01:38;;;;;;;32.20;14.45;;;;;;;-3.48;64.89;100034.19;5070945;28;20070;-56
2021/12/08 06:04:07;;;;;;;37.78;14.82;;;;;;;-3.81;64.70;99991.19;5072581;28;20048;-57
2021/12/08 06:06:33;;;;;;;31.48;13.63;;;;;;;-3.85;64.89;99995.59;5071343;28;20111;-56
2021/12/08 06:08:59;;;;;;;34.80;14.60;;;;;;;-3.67;64.69;100041.50;5072317;28;20033;-54
2021/12/08 06:11:27;;;;;;;34.10;13.85;;;;;;;-3.87;64.67;100015.69;5071733;28;20032;-54
2021/12/08 06:13:59;;;;;;;32.85;14.52;;;;;;;-3.64;64.93;100057.13;5071881;28;20025;-57
2021/12/08 06:16:26;;;;;;;37.63;15.00;;;;;;;-3.61;64.95;100061.47;5071528;28;20029;-55
2021/12/08 06:18:52;;;;;;;34.00;13.52;;;;;;;-3.67;64.54;100038.88;5071717;28;20060;-57
2021/12/08 06:21:23;;;;;;;31.92;13.93;;;;;;;-3.59;65.06;100067.53;5070648;28;20081;-57
2021/12/08 06:23:49;;;;;;;33.38;14.02;;;;;;;-3.66;64.49;100076.41;5071748;28;20028;-58
2021/12/08 06:26:18;;;;;;;33.88;13.32;;;;;;;-3.57;65.02;100072.75;5071642;28;20056;-53
2021/12/08 06:28:44;;;;;;;31.27;13.98;;;;;;;-3.58;64.69;100063.16;5071585;28;20407;-57
2021/12/08 06:31:11;;;;;;;32.72;14.38;;;;;;;-3.57;64.61;100067.50;5071548;28;20036;-55
2021/12/08 06:33:37;;;;;;;31.00;13.20;;;;;;;-3.62;64.80;100068.47;5071729;28;20439;-59
2021/12/08 06:36:19;;;;;;;33.20;14.15;;;;;;;-3.69;64.92;100069.44;5071558;28;20036;-58
2021/12/08 06:38:49;;;;;;;31.52;13.15;;;;;;;-3.67;64.57;100064.19;5071139;28;20484;-54
2021/12/08 06:41:20;;;;;;;37.25;14.20;;;;;;;-3.71;65.09;100067.75;5071498;28;20493;-56
2021/12/08 06:43:51;;;;;;;37.40;16.75;;;;;;;-3.69;64.86;100064.22;5071241;28;20453;-57
2021/12/08 06:46:17;;;;;;;33.17;14.23;;;;;;;-3.77;64.39;100068.72;5071537;28;20033;-54
2021/12/08 06:48:49;;;;;;;31.05;13.68;;;;;;;-3.75;64.70;100073.03;5069138;28;20097;-55
2021/12/08 06:51:46;;;;;;;34.67;13.75;;;;;;;-3.68;65.06;100083.41;5069022;28;20486;-57
2021/12/08 06:54:31;;;;;;;34.83;13.43;;;;;;;-3.67;65.21;100083.38;5066533;28;20045;-54
2021/12/08 06:57:03;;;;;;;32.40;13.25;;;;;;;-3.50;64.40;100090.91;5070318;28;20044;-59
2021/12/08 06:59:34;;;;;;;31.30;12.75;;;;;;;-3.44;63.69;100082.09;5069366;28;20051;-53
2021/12/08 07:02:14;;;;;;;34.33;13.80;;;;;;;-3.44;63.86;100095.16;5069540;28;20521;-56
2021/12/08 07:07:21;;;;;;;30.45;13.80;;;;;;;-3.61;64.02;100045.75;5070575;28;20032;-54
2021/12/08 07:09:56;;;;;;;37.00;14.98;;;;;;;-3.27;63.69;100091.38;5070978;28;20138;-56
2021/12/08 07:12:33;;;;;;;30.63;13.23;;;;;;;-3.23;63.73;100086.06;5071345;28;20029;-57
2021/12/08 07:15:07;;;;;;;35.40;13.98;;;;;;;-3.23;63.71;100095.66;5071492;28;20046;-55
2021/12/08 07:17:36;;;;;;;36.30;14.47;;;;;;;-3.21;63.34;100094.75;5070877;28;20093;-55
2021/12/08 07:20:15;;;;;;;31.58;13.45;;;;;;;-3.20;63.43;100098.22;5062591;28;20155;-55
2021/12/08 07:22:46;;;;;;;34.75;13.40;;;;;;;-3.18;63.17;100105.16;5035395;28;20029;-60
2021/12/08 07:25:15;;;;;;;19.77;8.77;;;;;;;-3.05;63.65;100116.25;5040557;28;20493;-55
2021/12/08 07:27:43;;;;;;;34.17;13.63;;;;;;;-3.40;63.11;100065.41;5048698;28;20049;-59
2021/12/08 07:30:19;;;;;;;33.15;14.00;;;;;;;-3.17;62.69;100117.38;5051307;28;20484;-60
2021/12/08 07:32:45;;;;;;;31.13;12.82;;;;;;;-3.22;62.91;100129.69;5051437;28;20037;-57
2021/12/08 07:35:21;;;;;;;27.80;12.88;;;;;;;-3.24;63.35;100114.88;5050007;28;20029;-58
2021/12/08 07:37:46;;;;;;;29.92;13.05;;;;;;;-3.14;63.34;100128.66;5050797;28;20025;-59
2021/12/08 07:40:21;;;;;;;31.42;13.48;;;;;;;-3.13;62.92;100123.41;5047341;28;20091;-61
2021/12/08 07:42:55;;;;;;;30.10;12.67;;;;;;;-3.21;62.97;100117.44;5051475;28;20090;-60
2021/12/08 07:45:25;;;;;;;29.98;12.95;;;;;;;-3.18;63.17;100131.34;5040288;28;20021;-61
2021/12/08 07:47:53;;;;;;;29.17;11.77;;;;;;;-3.47;63.03;100092.63;5038728;28;20379;-57
2021/12/08 07:50:34;;;;;;;29.08;11.63;;;;;;;-3.30;63.62;100125.47;5020937;28;20022;-62
2021/12/08 07:53:01;;;;;;;31.17;12.07;;;;;;;-3.55;63.01;100102.38;5040116;28;20470;-57
2021/12/08 07:55:33;;;;;;;27.85;12.23;;;;;;;-3.39;63.56;100132.59;5040340;28;20047;-57
2021/12/08 07:58:00;;;;;;;26.75;10.85;;;;;;;-3.45;63.47;100127.47;5044534;28;20033;-59
2021/12/08 08:00:34;;;;;;;26.70;12.15;;;;;;;-3.88;63.48;100050.59;5038595;28;20025;-57
2021/12/08 08:03:00;;;;;;;32.25;12.25;;;;;;;-3.49;63.24;100133.66;5061875;28;20516;-53
2021/12/08 08:05:28;;;;;;;33.25;13.73;;;;;;;-3.51;63.58;100127.59;5061848;28;20036;-57
2021/12/08 08:07:57;;;;;;;30.42;12.70;;;;;;;-3.44;63.46;100139.69;5062682;28;20041;-57
2021/12/08 08:10:26;;;;;;;27.10;11.88;;;;;;;-3.40;63.05;100125.63;5053133;28;20036;-60
2021/12/08 08:12:59;;;;;;;29.77;11.65;;;;;;;-3.38;63.11;100134.31;5062755;28;20040;-59
2021/12/08 08:15:25;;;;;;;23.77;11.18;;;;;;;-3.34;63.58;100136.03;5059615;28;20059;-63
2021/12/08 08:17:54;;;;;;;29.98;12.73;;;;;;;-3.36;63.42;100126.44;5056377;28;20033;-56
2021/12/08 08:20:26;;;;;;;26.67;11.90;;;;;;;-3.34;63.34;100133.41;5055187;28;20656;-61
2021/12/08 08:22:53;;;;;;;23.75;11.25;;;;;;;-3.26;63.12;100142.84;5066700;28;20029;-59
2021/12/08 08:25:27;;;;;;;26.08;12.40;;;;;;;-3.34;62.68;100146.50;5060587;28;20049;-62
2021/12/08 08:27:53;;;;;;;24.77;10.80;;;;;;;-3.63;62.76;100110.34;5058248;28;20111;-62
2021/12/08 08:30:23;;;;;;;25.52;11.13;;;;;;;-3.41;62.63;100150.09;5070313;28;20044;-64
2021/12/08 08:32:51;;;;;;;29.30;11.65;;;;;;;-3.46;62.44;100146.69;5058703;28;20029;-58
2021/12/08 08:35:26;;;;;;;28.75;12.80;;;;;;;-3.55;63.20;100144.25;5064873;28;20431;-59
2021/12/08 08:37:58;;;;;;;29.27;11.87;;;;;;;-3.54;63.67;100159.91;5066938;28;20407;-57
2021/12/08 08:40:34;;;;;;;22.35;11.00;;;;;;;-3.51;63.23;100151.16;5057164;28;20260;-58
2021/12/08 08:43:01;;;;;;;23.35;10.43;;;;;;;-3.63;63.62;100128.69;5067791;28;20095;-59
2021/12/08 08:45:35;;;;;;;23.58;10.90;;;;;;;-3.61;63.69;100145.22;5062467;28;20035;-62
2021/12/08 08:48:18;;;;;;;21.47;10.47;;;;;;;-3.79;63.70;100120.22;5058640;28;20052;-56
2021/12/08 08:50:51;;;;;;;20.63;10.00;;;;;;;-3.79;63.31;100135.91;5043279;28;20245;-56
2021/12/08 08:53:20;;;;;;;21.50;10.30;;;;;;;-3.73;63.80;100153.28;5064370;28;20029;-54
2021/12/08 08:55:50;;;;;;;21.00;9.60;;;;;;;-3.69;63.52;100145.34;5066058;28;20036;-57
2021/12/08 08:58:21;;;;;;;22.20;9.85;;;;;;;-3.77;64.12;100145.47;5056794;28;20100;-56
2021/12/08 09:00:55;;;;;;;26.42;10.95;;;;;;;-3.66;63.88;100147.06;5068630;28;20120;-57
2021/12/08 09:03:25;;;;;;;27.98;12.20;;;;;;;-3.68;64.01;100154.91;5057092;28;20060;-56
2021/12/08 09:05:57;;;;;;;27.00;11.80;;;;;;;-3.66;63.94;100142.66;5048691;28;20396;-59
2021/12/08 09:08:25;;;;;;;27.38;12.05;;;;;;;-3.53;63.93;100150.31;5056853;28;20032;-63
2021/12/08 09:11:00;;;;;;;22.30;10.65;;;;;;;-3.50;63.44;100155.50;5068215;28;20025;-56
2021/12/08 09:13:38;;;;;;;25.35;11.57;;;;;;;-3.47;62.66;100152.81;5063220;28;20468;-55
2021/12/08 09:16:15;;;;;;;29.73;11.65;;;;;;;-3.51;62.54;100148.53;5050870;28;20036;-59
2021/12/08 09:19:03;;;;;;;28.85;11.00;;;;;;;-3.57;62.79;100159.13;5040992;28;20036;-56
2021/12/08 09:21:42;;;;;;;25.48;11.25;;;;;;;-3.57;62.54;100140.81;5062986;28;20029;-60
2021/12/08 09:24:38;;;;;;;27.17;11.48;;;;;;;-3.65;62.21;100156.63;5068813;28;20070;-53
2021/12/08 09:27:09;;;;;;;23.00;10.63;;;;;;;-3.72;62.23;100161.09;5056189;28;20476;-58
2021/12/08 09:29:44;;;;;;;27.42;11.93;;;;;;;-3.77;61.81;100148.06;5060682;28;20481;-56
2021/12/08 09:32:18;;;;;;;25.83;12.02;;;;;;;-3.77;61.97;100144.59;5068440;28;20098;-60
2021/12/08 09:34:54;;;;;;;36.90;12.45;;;;;;;-3.79;61.83;100154.25;5055822;28;20029;-59
2021/12/08 09:37:22;;;;;;;27.48;11.52;;;;;;;-3.73;62.16;100137.59;5062887;28;20385;-61
2021/12/08 09:39:58;;;;;;;28.15;12.60;;;;;;;-3.64;61.95;100148.72;5064614;28;20115;-62
2021/12/08 09:42:23;;;;;;;28.48;11.80;;;;;;;-3.59;61.82;100151.28;5054411;28;20041;-64
2021/12/08 09:45:07;;;;;;;30.77;12.38;;;;;;;-3.54;61.99;100145.97;5067429;28;20469;-54
2021/12/08 09:47:33;;;;;;;31.67;13.13;;;;;;;-3.63;61.27;100150.47;5063416;28;20044;-57
2021/12/08 09:50:00;;;;;;;22.52;10.43;;;;;;;-3.84;61.26;100129.91;5058040;28;20039;-51
2021/12/08 09:52:28;;;;;;;26.92;11.43;;;;;;;-3.79;61.59;100144.63;5068592;28;20052;-59
2021/12/08 09:55:00;;;;;;;23.73;10.48;;;;;;;-3.77;61.81;100152.47;5057679;28;20028;-59
2021/12/08 09:57:26;;;;;;;31.48;12.07;;;;;;;-3.80;61.36;100168.22;5061009;28;20049;-61
2021/12/08 09:59:53;;;;;;;29.52;12.27;;;;;;;-3.89;61.21;100149.13;5064685;28;20029;-59
2021/12/08 10:02:33;;;;;;;25.33;11.25;;;;;;;-3.91;61.98;100161.38;5055388;28;20025;-60
2021/12/08 10:05:05;;;;;;;28.70;11.45;;;;;;;-3.93;61.88;100149.22;5066088;28;20029;-56
2021/12/08 10:07:31;;;;;;;26.45;11.07;;;;;;;-3.92;61.73;100159.66;5057519;28;20036;-59
2021/12/08 10:09:57;;;;;;;27.50;12.07;;;;;;;-3.96;61.54;100144.91;5033906;28;20041;-60
2021/12/08 10:12:22;;;;;;;25.75;10.90;;;;;;;-3.90;61.72;100157.03;5052722;28;20033;-61
2021/12/08 10:14:50;;;;;;;28.30;11.23;;;;;;;-3.80;62.22;100163.81;5054818;28;20112;-62
2021/12/08 10:17:18;;;;;;;28.33;11.45;;;;;;;-3.73;61.38;100154.13;5063378;28;20071;-61
2021/12/08 10:19:49;;;;;;;30.50;11.95;;;;;;;-3.77;61.56;100150.69;5064874;28;20032;-58
2021/12/08 10:22:22;;;;;;;27.45;11.45;;;;;;;-3.71;61.78;100154.97;5055034;28;20370;-55
2021/12/08 10:25:11;;;;;;;28.55;11.70;;;;;;;-3.70;61.32;100154.06;5068108;28;20106;-64
2021/12/08 10:28:01;;;;;;;27.42;11.77;;;;;;;-3.75;61.78;100156.75;5058757;28;20044;-63
2021/12/08 10:30:27;;;;;;;29.65;12.73;;;;;;;-4.10;61.08;100124.19;5050182;28;20048;-62
2021/12/08 10:32:54;;;;;;;26.58;11.60;;;;;;;-3.91;61.91;100177.06;5057117;28;20465;-62
2021/12/08 10:35:41;;;;;;;26.58;11.43;;;;;;;-3.82;61.81;100170.84;5061217;28;20025;-63
2021/12/08 10:38:07;;;;;;;24.38;9.15;;;;;;;-3.87;61.79;100163.94;5039572;28;20029;-58
2021/12/08 10:40:32;;;;;;;26.80;11.98;;;;;;;-3.87;61.83;100184.88;5061023;28;20456;-61
2021/12/08 10:42:58;;;;;;;27.63;11.25;;;;;;;-4.00;62.03;100177.22;5037303;28;20116;-65
2021/12/08 10:45:28;;;;;;;26.50;10.10;;;;;;;-3.94;62.08;100178.91;5053631;28;20035;-62
2021/12/08 10:47:58;;;;;;;24.00;10.57;;;;;;;-3.97;61.91;100179.78;5056273;28;20017;-60
2021/12/08 10:56:17;;;;;;;22.60;9.43;;;;;;;-4.13;61.75;100186.13;5046005;28;20029;-59
2021/12/08 10:58:50;;;;;;;22.48;10.18;;;;;;;-4.29;62.23;100170.66;5039491;28;20029;-60
2021/12/08 11:01:20;;;;;;;25.15;10.55;;;;;;;-4.25;62.42;100201.13;5061997;28;20465;-58
2021/12/08 11:03:48;;;;;;;23.80;11.45;;;;;;;-4.27;62.45;100195.03;5064429;28;20040;-60
2021/12/08 11:06:17;;;;;;;30.15;11.75;;;;;;;-4.22;62.78;100200.19;5066452;28;20036;-60
2021/12/08 11:08:54;;;;;;;26.60;11.10;;;;;;;-4.21;63.15;100192.34;5055682;28;20017;-67
2021/12/08 11:11:28;;;;;;;31.70;11.43;;;;;;;-4.25;62.69;100180.19;5061260;28;20074;-61
2021/12/08 11:14:00;;;;;;;23.40;10.73;;;;;;;-4.10;62.98;100191.31;5065517;28;20029;-60
2021/12/08 11:16:33;;;;;;;24.58;10.32;;;;;;;-4.09;61.86;100193.06;5053597;28;20029;-59
2021/12/08 11:19:06;;;;;;;20.63;9.75;;;;;;;-4.16;62.07;100207.09;5055129;28;20085;-58
2021/12/08 11:21:37;;;;;;;29.13;10.68;;;;;;;-4.21;62.51;100210.63;5043418;28;20115;-58
2021/12/08 11:24:20;;;;;;;23.13;9.52;;;;;;;-4.25;62.15;100203.72;5055793;28;20040;-57
2021/12/08 11:26:51;;;;;;;23.30;9.48;;;;;;;-4.25;61.85;100218.53;5039327;28;20033;-62
2021/12/08 11:29:20;;;;;;;21.77;9.57;;;;;;;-4.34;62.20;100204.72;5044177;28;20040;-58
2021/12/08 11:32:01;;;;;;;20.67;9.13;;;;;;;-4.42;62.28;100205.69;5063778;28;20029;-56
2021/12/08 11:34:29;;;;;;;22.40;9.15;;;;;;;-5.00;62.76;100145.44;5052838;28;20543;-57
2021/12/08 11:37:02;;;;;;;19.55;8.27;;;;;;;-4.62;62.22;100201.56;5063125;28;20078;-57
2021/12/08 11:39:34;;;;;;;21.63;9.60;;;;;;;-4.66;62.78;100213.81;5042934;28;20103;-57
2021/12/08 11:42:10;;;;;;;23.02;9.50;;;;;;;-4.73;63.12;100221.75;5054013;28;20063;-55
2021/12/08 11:44:42;;;;;;;23.17;10.02;;;;;;;-4.77;63.29;100224.41;5067062;28;20533;-59
2021/12/08 11:47:11;;;;;;;24.17;9.65;;;;;;;-4.80;62.90;100228.78;5056545;28;20502;-60
2021/12/08 11:49:43;;;;;;;21.88;9.25;;;;;;;-4.83;63.33;100223.59;5057692;28;20031;-56
2021/12/08 11:52:13;;;;;;;20.63;9.05;;;;;;;-4.79;62.92;100218.31;5066361;28;20029;-59
2021/12/08 11:54:40;;;;;;;24.63;9.57;;;;;;;-4.75;63.52;100221.75;5038427;28;20024;-57
2021/12/08 11:57:19;;;;;;;24.15;9.68;;;;;;;-4.78;63.56;100213.94;5067065;28;20045;-53
2021/12/08 12:00:04;;;;;;;20.80;9.40;;;;;;;-4.75;63.81;100219.13;5066742;28;20388;-54
2021/12/08 12:02:35;;;;;;;31.52;9.82;;;;;;;-4.78;63.55;100213.94;5056235;28;20089;-57
2021/12/08 12:05:08;;;;;;;21.48;10.95;;;;;;;-4.79;63.24;100218.31;5067384;28;20167;-53
2021/12/08 12:07:33;;;;;;;20.85;9.43;;;;;;;-4.81;63.07;100214.00;5064212;28;20400;-54
2021/12/08 12:09:59;;;;;;;23.45;9.23;;;;;;;-4.84;63.60;100214.88;5060058;28;20033;-54
2021/12/08 12:12:25;;;;;;;22.63;10.63;;;;;;;-4.85;63.94;100215.75;5070889;28;20032;-57
2021/12/08 12:14:51;;;;;;;25.42;10.68;;;;;;;-4.81;63.57;100232.28;5059530;28;20109;-57